Time;durP1;ratioP1;P1;durP2;ratioP2;P2;SDS_P1;SDS_P2;PMS_P1;PMS_P2;Temp;Humidity;BMP_temperature;BMP_pressure;BME280_temperature;BME280_humidity;BME280_pressure;Samples;Min_cycle;Max_cycle;Signal;HPM_P1;HPM_P2
2021/06/27 00:00:43;;;;;;;6.83;6.03;;;22.80;99.90;;;;;;5095709;28;20444;-67
2021/06/27 00:03:10;;;;;;;6.97;6.27;;;22.80;99.90;;;;;;5095970;28;20617;-67
2021/06/27 00:05:37;;;;;;;6.63;6.03;;;22.90;99.90;;;;;;5094329;28;20806;-67
2021/06/27 00:08:04;;;;;;;9.37;6.87;;;22.80;99.90;;;;;;5095859;28;20413;-66
2021/06/27 00:10:34;;;;;;;7.83;6.57;;;22.80;99.90;;;;;;5095409;28;20500;-67
2021/06/27 00:13:00;;;;;;;6.80;5.70;;;22.70;99.90;;;;;;5095450;28;20423;-68
2021/06/27 00:15:34;;;;;;;10.00;6.80;;;22.70;99.90;;;;;;5095510;28;20422;-66
2021/06/27 00:18:01;;;;;;;7.50;6.07;;;22.70;99.90;;;;;;5111153;28;20482;-69
2021/06/27 00:20:29;;;;;;;6.47;5.87;;;22.70;99.90;;;;;;5110396;28;20813;-66
2021/06/27 00:22:55;;;;;;;8.37;6.00;;;22.70;99.90;;;;;;5095522;28;20511;-66
2021/06/27 00:25:24;;;;;;;10.33;6.47;;;22.70;99.90;;;;;;5095295;28;20488;-66
2021/06/27 00:27:50;;;;;;;6.00;5.50;;;22.70;99.90;;;;;;5095361;28;20176;-66
2021/06/27 00:30:18;;;;;;;10.10;6.77;;;22.60;99.90;;;;;;5110738;28;20440;-67
2021/06/27 00:32:45;;;;;;;6.23;5.43;;;22.50;99.90;;;;;;5111005;28;21014;-66
2021/06/27 00:35:13;;;;;;;6.30;5.43;;;22.50;99.90;;;;;;5095052;28;20436;-68
2021/06/27 00:37:39;;;;;;;6.13;5.57;;;22.40;99.90;;;;;;5094385;28;20421;-65
2021/06/27 00:40:09;;;;;;;7.90;5.80;;;22.50;99.90;;;;;;5095168;28;20468;-66
2021/06/27 00:42:35;;;;;;;6.50;5.00;;;22.40;99.90;;;;;;5095152;28;20432;-67
2021/06/27 00:45:02;;;;;;;6.10;5.50;;;22.30;99.90;;;;;;5094848;28;20421;-66
2021/06/27 00:47:32;;;;;;;7.30;6.10;;;22.30;99.90;;;;;;5095100;28;20610;-66
2021/06/27 00:49:58;;;;;;;7.23;6.20;;;22.20;99.90;;;;;;5110480;28;20511;-67
2021/06/27 00:52:25;;;;;;;7.77;5.80;;;22.30;99.90;;;;;;5094767;28;20543;-66
2021/06/27 00:54:51;;;;;;;7.07;5.83;;;22.30;99.90;;;;;;5094704;28;20173;-66
2021/06/27 00:57:17;;;;;;;7.07;6.37;;;22.30;99.90;;;;;;5093345;28;20454;-67
2021/06/27 00:59:43;;;;;;;6.00;5.40;;;22.20;99.90;;;;;;5094670;28;20435;-67
2021/06/27 01:02:09;;;;;;;9.30;5.80;;;22.20;99.90;;;;;;5094549;28;20669;-68
2021/06/27 01:04:37;;;;;;;7.43;6.63;;;22.20;99.90;;;;;;5094565;28;20184;-68
2021/06/27 01:07:03;;;;;;;8.10;6.17;;;22.20;99.90;;;;;;5094517;28;20417;-67
2021/06/27 01:09:29;;;;;;;7.70;6.17;;;22.20;99.90;;;;;;5094506;28;20432;-68
2021/06/27 01:11:57;;;;;;;7.23;6.27;;;22.20;99.90;;;;;;5094175;28;20465;-68
2021/06/27 01:14:23;;;;;;;5.73;5.20;;;22.20;99.90;;;;;;5094438;28;20184;-67
2021/06/27 01:16:49;;;;;;;6.73;5.87;;;22.20;99.90;;;;;;5094256;28;20428;-66
2021/06/27 01:19:14;;;;;;;7.40;6.60;;;22.10;99.90;;;;;;5093120;28;20421;-67
2021/06/27 01:21:40;;;;;;;6.50;5.80;;;22.10;99.90;;;;;;5094298;28;20416;-66
2021/06/27 01:24:06;;;;;;;6.07;5.47;;;22.10;99.90;;;;;;5094357;28;20216;-68
2021/06/27 01:26:32;;;;;;;7.43;6.70;;;22.00;99.90;;;;;;5094226;28;20214;-66
2021/06/27 01:28:59;;;;;;;7.90;6.50;;;22.00;99.90;;;;;;5094642;28;20412;-66
2021/06/27 01:31:26;;;;;;;8.03;7.17;;;22.00;99.90;;;;;;5091728;28;20481;-66
2021/06/27 01:33:53;;;;;;;6.80;5.23;;;21.90;99.90;;;;;;5093011;28;20490;-67
2021/06/27 01:36:20;;;;;;;7.70;6.10;;;21.90;99.90;;;;;;5094048;28;20425;-68
2021/06/27 01:38:46;;;;;;;5.73;5.13;;;21.90;99.90;;;;;;5094417;28;20416;-69
2021/06/27 01:41:12;;;;;;;8.10;6.73;;;21.90;99.90;;;;;;5092577;28;20433;-68
2021/06/27 01:43:37;;;;;;;7.17;6.47;;;21.80;99.90;;;;;;5094360;28;20528;-66
2021/06/27 01:46:03;;;;;;;6.53;5.93;;;21.80;99.90;;;;;;5093835;28;20528;-67
2021/06/27 01:48:30;;;;;;;8.03;7.23;;;21.70;99.90;;;;;;5109715;28;20771;-68
2021/06/27 01:50:57;;;;;;;7.97;6.17;;;21.70;99.90;;;;;;5093704;28;20815;-66
2021/06/27 01:53:33;;;;;;;11.77;6.87;;;21.60;99.90;;;;;;5094226;28;20452;-69
2021/06/27 01:56:05;;;;;;;7.13;6.43;;;21.60;99.90;;;;;;5093815;28;20827;-66
2021/06/27 01:58:47;;;;;;;8.37;7.20;;;21.50;99.90;;;;;;5094230;28;20405;-67
2021/06/27 02:01:28;;;;;;;6.90;6.30;;;21.50;99.90;;;;;;5092526;28;20432;-67
2021/06/27 02:03:54;;;;;;;7.60;6.80;;;21.40;99.90;;;;;;5094164;28;20468;-67
2021/06/27 02:06:22;;;;;;;9.30;6.53;;;21.30;99.90;;;;;;5093621;28;20439;-66
2021/06/27 02:08:49;;;;;;;6.93;6.23;;;21.30;99.90;;;;;;5094162;28;20746;-68
2021/06/27 02:11:17;;;;;;;7.10;5.80;;;21.20;99.90;;;;;;5093758;28;20496;-66
2021/06/27 02:13:43;;;;;;;9.60;6.20;;;21.20;99.90;;;;;;5093985;28;20422;-66
2021/06/27 02:16:09;;;;;;;8.13;6.40;;;21.20;99.90;;;;;;5093532;28;20441;-67
2021/06/27 02:18:39;;;;;;;8.70;6.17;;;21.10;99.90;;;;;;5109416;28;20798;-66
2021/06/27 02:21:31;;;;;;;7.37;6.57;;;21.10;99.90;;;;;;5092218;28;20211;-65
2021/06/27 02:23:57;;;;;;;7.67;6.83;;;21.10;99.90;;;;;;5093851;28;20798;-67
2021/06/27 02:26:25;;;;;;;8.37;7.50;;;21.10;99.90;;;;;;5093614;28;20938;-66
2021/06/27 02:28:51;;;;;;;8.50;7.00;;;21.00;99.90;;;;;;5092405;28;20486;-67
2021/06/27 02:31:17;;;;;;;8.90;6.70;;;21.00;99.90;;;;;;5093347;28;20465;-68
2021/06/27 02:33:44;;;;;;;9.40;7.60;;;21.10;99.90;;;;;;5093905;28;20413;-67
2021/06/27 02:36:10;;;;;;;8.83;7.37;;;21.00;99.90;;;;;;5109070;28;20494;-67
2021/06/27 02:38:36;;;;;;;10.53;7.10;;;21.00;99.90;;;;;;5093823;28;20409;-66
2021/06/27 02:41:03;;;;;;;8.53;7.73;;;20.90;99.90;;;;;;5093300;28;21010;-68
2021/06/27 02:43:28;;;;;;;12.10;7.73;;;20.80;99.90;;;;;;5096501;28;20905;-67
2021/06/27 02:45:54;;;;;;;8.83;6.80;;;20.90;99.90;;;;;;5095913;28;20443;-68
2021/06/27 02:48:21;;;;;;;10.87;7.40;;;20.90;99.90;;;;;;5097583;28;20171;-65
2021/06/27 02:50:47;;;;;;;9.63;7.47;;;20.90;99.90;;;;;;5112773;28;20221;-68
2021/06/27 02:53:13;;;;;;;13.20;7.03;;;20.80;99.90;;;;;;5096664;28;20772;-67
2021/06/27 02:55:39;;;;;;;8.37;7.57;;;20.80;99.90;;;;;;5096063;28;20433;-70
2021/06/27 02:58:05;;;;;;;9.33;7.60;;;20.70;99.90;;;;;;5096130;28;20679;-66
2021/06/27 03:00:32;;;;;;;9.37;7.70;;;20.70;99.90;;;;;;5095688;28;20485;-68
2021/06/27 03:02:59;;;;;;;9.60;8.20;;;20.80;99.90;;;;;;5095765;28;20752;-66
2021/06/27 03:05:25;;;;;;;8.80;6.90;;;20.70;99.90;;;;;;5096912;28;20857;-66
2021/06/27 03:07:50;;;;;;;8.70;7.67;;;20.70;99.90;;;;;;5097008;28;20444;-66
2021/06/27 03:10:18;;;;;;;8.77;7.87;;;20.70;99.90;;;;;;5096785;28;20464;-68
2021/06/27 03:12:47;;;;;;;8.50;7.70;;;20.80;99.90;;;;;;5096821;28;20233;-66
2021/06/27 03:15:17;;;;;;;9.20;8.27;;;20.80;99.90;;;;;;5096836;28;20467;-67
2021/06/27 03:17:42;;;;;;;8.10;7.30;;;20.70;99.90;;;;;;5097064;28;20765;-68
2021/06/27 03:20:11;;;;;;;10.30;8.50;;;20.70;99.90;;;;;;5096483;28;20435;-68
2021/06/27 03:22:37;;;;;;;11.07;8.37;;;20.70;99.90;;;;;;5096713;28;20180;-67
2021/06/27 03:25:05;;;;;;;12.07;8.87;;;20.80;99.90;;;;;;5096415;28;20492;-67
2021/06/27 03:27:30;;;;;;;8.63;7.73;;;20.80;99.90;;;;;;5095165;28;20778;-66
2021/06/27 03:29:56;;;;;;;11.60;8.27;;;20.80;99.90;;;;;;5095285;28;20420;-67
2021/06/27 03:32:23;;;;;;;10.87;8.37;;;20.80;99.90;;;;;;5095267;28;20220;-68
2021/06/27 03:34:48;;;;;;;8.63;7.40;;;20.80;99.90;;;;;;5094986;28;20415;-66
2021/06/27 03:37:14;;;;;;;15.50;8.67;;;20.90;99.90;;;;;;5096282;28;20405;-67
2021/06/27 03:39:39;;;;;;;13.43;8.50;;;21.00;99.90;;;;;;5096275;28;20210;-66
2021/06/27 03:42:06;;;;;;;12.90;8.00;;;21.00;99.90;;;;;;5094790;28;20315;-66
2021/06/27 03:44:31;;;;;;;12.17;8.40;;;21.00;99.90;;;;;;5096070;28;20191;-68
2021/06/27 03:46:57;;;;;;;9.00;8.10;;;21.10;99.90;;;;;;5095994;28;20524;-67
2021/06/27 03:49:23;;;;;;;10.20;8.00;;;21.10;99.90;;;;;;5111815;28;20224;-68
2021/06/27 03:51:49;;;;;;;9.73;8.33;;;21.00;99.90;;;;;;5095790;28;20212;-66
2021/06/27 03:54:16;;;;;;;9.13;8.27;;;21.00;99.90;;;;;;5095042;28;20407;-66
2021/06/27 03:56:42;;;;;;;12.67;11.33;;;21.00;99.90;;;;;;5095864;28;20430;-66
2021/06/27 03:59:08;;;;;;;16.63;12.00;;;21.00;99.90;;;;;;5096375;28;20420;-67
2021/06/27 04:01:34;;;;;;;14.27;11.33;;;20.90;99.90;;;;;;5095824;28;20417;-66
2021/06/27 04:04:00;;;;;;;11.40;9.43;;;21.00;99.90;;;;;;5096167;28;20975;-66
2021/06/27 04:06:26;;;;;;;10.80;9.67;;;21.10;99.90;;;;;;5095717;28;20211;-66
2021/06/27 04:08:52;;;;;;;9.90;8.80;;;21.10;99.90;;;;;;5096088;28;20466;-66
2021/06/27 04:11:18;;;;;;;14.40;10.07;;;21.20;99.90;;;;;;5094186;28;20223;-67
2021/06/27 04:13:43;;;;;;;12.47;9.87;;;21.20;99.90;;;;;;5095977;28;20417;-67
2021/06/27 04:16:10;;;;;;;9.70;8.53;;;21.30;99.90;;;;;;5095442;28;20283;-68
2021/06/27 04:18:37;;;;;;;11.33;8.80;;;21.30;99.90;;;;;;5095981;28;20614;-66
2021/06/27 04:21:04;;;;;;;11.70;8.97;;;21.40;99.90;;;;;;5094040;28;20437;-66
2021/06/27 04:23:31;;;;;;;11.00;8.87;;;21.50;99.90;;;;;;5095804;28;20910;-66
2021/06/27 04:25:57;;;;;;;10.27;9.17;;;21.50;99.90;;;;;;5095307;28;20456;-66
2021/06/27 04:28:23;;;;;;;12.80;8.57;;;21.60;99.90;;;;;;5095628;28;20446;-67
2021/06/27 04:30:48;;;;;;;12.50;9.40;;;21.60;99.90;;;;;;5095079;28;20207;-66
2021/06/27 04:33:14;;;;;;;13.00;9.10;;;21.60;99.90;;;;;;5093993;28;20195;-67
2021/06/27 04:35:41;;;;;;;12.03;8.63;;;21.70;99.90;;;;;;5093828;28;20254;-67
2021/06/27 04:38:08;;;;;;;9.43;8.00;;;21.80;99.90;;;;;;5093879;28;20421;-68
2021/06/27 04:40:35;;;;;;;10.77;8.40;;;21.70;99.90;;;;;;5093784;28;20938;-67
2021/06/27 04:43:01;;;;;;;11.83;8.57;;;21.80;99.90;;;;;;5095257;28;20964;-67
2021/06/27 04:45:26;;;;;;;10.50;8.40;;;21.80;99.90;;;;;;5094989;28;20420;-65
2021/06/27 04:47:52;;;;;;;10.97;8.17;;;21.90;99.90;;;;;;5095032;28;20176;-69
2021/06/27 04:50:18;;;;;;;11.07;8.70;;;21.90;99.90;;;;;;5093666;28;20561;-66
2021/06/27 04:52:44;;;;;;;9.20;7.33;;;21.90;99.90;;;;;;5094877;28;20468;-67
2021/06/27 04:55:10;;;;;;;8.90;8.00;;;22.00;99.90;;;;;;5094672;28;20196;-67
2021/06/27 04:57:36;;;;;;;8.80;7.97;;;22.10;99.90;;;;;;5093460;28;20417;-67
2021/06/27 05:00:04;;;;;;;10.73;8.30;;;22.10;99.90;;;;;;5094653;28;20416;-69
2021/06/27 05:02:29;;;;;;;10.27;7.17;;;22.20;99.90;;;;;;5094495;28;20653;-68
2021/06/27 05:04:55;;;;;;;10.17;7.40;;;22.20;99.90;;;;;;5094380;28;20402;-66
2021/06/27 05:07:21;;;;;;;8.57;7.67;;;22.30;99.90;;;;;;5093270;28;20172;-66
2021/06/27 05:09:49;;;;;;;8.47;6.63;;;22.50;99.90;;;;;;5093228;28;20203;-66
2021/06/27 05:12:15;;;;;;;7.93;7.13;;;22.60;99.90;;;;;;5093137;28;20475;-66
2021/06/27 05:14:40;;;;;;;8.83;6.50;;;22.80;99.90;;;;;;5094412;28;20405;-67
2021/06/27 05:17:06;;;;;;;7.60;6.90;;;22.70;99.90;;;;;;5092834;28;20464;-70
2021/06/27 05:19:32;;;;;;;7.37;6.77;;;22.90;99.90;;;;;;5093085;28;20176;-68
2021/06/27 05:21:57;;;;;;;7.93;7.10;;;23.00;99.90;;;;;;5092685;28;20241;-67
2021/06/27 05:24:23;;;;;;;6.23;5.70;;;23.20;99.90;;;;;;5094123;28;20261;-67
2021/06/27 05:26:48;;;;;;;7.90;7.03;;;23.20;99.90;;;;;;5094136;28;20196;-67
2021/06/27 05:29:14;;;;;;;6.70;6.00;;;23.20;99.90;;;;;;5094320;28;20187;-68
2021/06/27 05:31:40;;;;;;;7.10;6.50;;;23.50;99.90;;;;;;5094021;28;20216;-68
2021/06/27 05:34:05;;;;;;;6.57;5.97;;;23.50;99.90;;;;;;5094584;28;20525;-69
2021/06/27 05:36:37;;;;;;;7.20;5.50;;;23.70;99.90;;;;;;5094174;28;20607;-69
2021/06/27 05:39:05;;;;;;;6.23;5.63;;;23.90;99.90;;;;;;5094061;28;20401;-67
2021/06/27 05:41:31;;;;;;;6.50;5.90;;;23.80;99.90;;;;;;5093971;28;20460;-68
2021/06/27 05:43:57;;;;;;;5.70;5.20;;;23.70;99.90;;;;;;5094472;28;20886;-68
2021/06/27 05:46:22;;;;;;;6.30;5.70;;;23.60;99.90;;;;;;5092677;28;20657;-68
2021/06/27 05:48:48;;;;;;;6.60;5.90;;;23.80;99.90;;;;;;5092834;28;20175;-67
2021/06/27 05:51:13;;;;;;;6.70;5.83;;;23.90;99.90;;;;;;5093713;28;20590;-66
2021/06/27 05:53:40;;;;;;;7.20;6.50;;;24.00;99.90;;;;;;5092751;28;20630;-68
2021/06/27 05:56:14;;;;;;;6.27;5.77;;;24.00;99.90;;;;;;5093773;28;20200;-69
2021/06/27 05:58:41;;;;;;;6.40;5.80;;;24.20;99.90;;;;;;5092715;28;20481;-67
2021/06/27 06:01:09;;;;;;;6.53;5.93;;;24.20;99.90;;;;;;5093755;28;20436;-69
2021/06/27 06:03:36;;;;;;;6.57;5.97;;;24.20;99.90;;;;;;5092634;28;20888;-68
2021/06/27 06:06:03;;;;;;;6.40;5.70;;;24.30;99.90;;;;;;5092447;28;20965;-68
2021/06/27 06:08:28;;;;;;;6.70;6.10;;;24.40;99.90;;;;;;5094090;28;20409;-68
2021/06/27 06:10:54;;;;;;;6.10;5.50;;;24.40;99.90;;;;;;5093601;28;20819;-67
2021/06/27 06:13:20;;;;;;;6.10;5.60;;;24.70;99.90;;;;;;5093914;28;20234;-67
2021/06/27 06:15:46;;;;;;;6.40;5.80;;;24.70;99.90;;;;;;5093711;28;20204;-67
2021/06/27 06:18:11;;;;;;;5.93;5.33;;;24.70;99.90;;;;;;5096228;28;20176;-67
2021/06/27 06:20:37;;;;;;;6.77;6.17;;;24.80;99.90;;;;;;5097748;28;20196;-71
2021/06/27 06:23:02;;;;;;;6.70;5.40;;;24.80;99.90;;;;;;5097781;28;20577;-67
2021/06/27 06:25:28;;;;;;;6.37;5.77;;;24.80;99.90;;;;;;5096083;28;20240;-69
2021/06/27 06:27:53;;;;;;;6.77;6.17;;;25.00;99.90;;;;;;5095850;28;20186;-67
2021/06/27 06:30:19;;;;;;;6.20;5.60;;;25.00;99.90;;;;;;5096168;28;20236;-66
2021/06/27 06:32:45;;;;;;;6.03;5.53;;;25.10;99.90;;;;;;5095224;28;20234;-64
2021/06/27 06:35:11;;;;;;;6.60;6.00;;;25.10;99.90;;;;;;5095273;28;20498;-65
2021/06/27 06:37:37;;;;;;;5.67;5.27;;;25.30;99.90;;;;;;5095454;28;20417;-67
2021/06/27 06:40:07;;;;;;;6.20;5.27;;;25.10;99.90;;;;;;5093823;28;20450;-65
2021/06/27 06:42:32;;;;;;;5.87;5.27;;;25.20;99.90;;;;;;5095090;28;20632;-65
2021/06/27 06:44:58;;;;;;;5.80;5.30;;;25.00;99.90;;;;;;5094361;28;20493;-64
2021/06/27 06:47:24;;;;;;;6.20;5.57;;;25.10;99.90;;;;;;5096002;28;20179;-65
2021/06/27 06:49:50;;;;;;;6.60;6.00;;;25.30;99.90;;;;;;5097129;28;20417;-66
2021/06/27 06:52:15;;;;;;;5.87;5.43;;;25.40;99.90;;;;;;5095862;28;20709;-65
2021/06/27 06:54:41;;;;;;;5.67;5.20;;;25.40;99.90;;;;;;5097163;28;20641;-65
2021/06/27 06:57:07;;;;;;;6.10;5.60;;;25.40;99.90;;;;;;5095761;28;20206;-67
2021/06/27 06:59:32;;;;;;;7.80;5.60;;;25.70;99.90;;;;;;5095778;28;20191;-65
2021/06/27 07:01:58;;;;;;;5.50;5.10;;;25.80;99.90;;;;;;5096847;28;20195;-66
2021/06/27 07:04:24;;;;;;;6.00;5.50;;;25.80;99.90;;;;;;5096972;28;20578;-68
2021/06/27 07:06:49;;;;;;;5.27;4.53;;;26.10;99.90;;;;;;5096718;28;20198;-67
2021/06/27 07:09:15;;;;;;;5.73;5.30;;;26.30;99.90;;;;;;5096880;28;20186;-67
2021/06/27 07:11:41;;;;;;;5.73;5.30;;;26.00;99.90;;;;;;5095384;28;20214;-65
2021/06/27 07:14:06;;;;;;;7.63;6.00;;;25.50;99.90;;;;;;5095662;28;20191;-65
2021/06/27 07:16:32;;;;;;;12.60;6.47;;;25.60;99.90;;;;;;5096717;28;20206;-65
2021/06/27 07:18:58;;;;;;;6.80;6.20;;;25.60;99.90;;;;;;5097123;28;20660;-66
2021/06/27 07:21:26;;;;;;;6.60;5.53;;;25.80;99.90;;;;;;5095309;28;20204;-65
2021/06/27 07:23:52;;;;;;;6.20;5.57;;;25.90;99.90;;;;;;5097075;28;20207;-65
2021/06/27 07:26:17;;;;;;;6.60;5.83;;;26.20;99.90;;;;;;5096303;28;20491;-67
2021/06/27 07:28:43;;;;;;;6.83;6.17;;;26.50;99.90;;;;;;5096911;28;20176;-65
2021/06/27 07:31:09;;;;;;;5.47;5.07;;;26.40;99.90;;;;;;5094279;28;20297;-65
2021/06/27 07:33:34;;;;;;;6.20;5.60;;;26.10;99.90;;;;;;5095247;28;20175;-65
2021/06/27 07:36:00;;;;;;;6.63;6.03;;;26.10;99.90;;;;;;5094206;28;20600;-66
2021/06/27 07:38:25;;;;;;;5.73;5.23;;;26.20;99.90;;;;;;5094483;28;20199;-65
2021/06/27 07:40:51;;;;;;;6.93;5.97;;;26.50;99.90;;;;;;5094323;28;20215;-66
2021/06/27 07:43:17;;;;;;;6.67;6.07;;;26.60;99.90;;;;;;5094380;28;20180;-65
2021/06/27 07:45:43;;;;;;;7.10;6.40;;;26.40;99.90;;;;;;5109713;28;20204;-66
2021/06/27 07:48:09;;;;;;;6.93;5.03;;;26.10;99.90;;;;;;5093439;28;20172;-65
2021/06/27 07:50:34;;;;;;;6.13;5.53;;;26.40;99.90;;;;;;5095921;28;20436;-65
2021/06/27 07:53:00;;;;;;;8.93;5.40;;;26.80;99.90;;;;;;5096198;28;20793;-67
2021/06/27 07:55:26;;;;;;;6.07;5.47;;;27.00;99.90;;;;;;5095958;28;20567;-67
2021/06/27 07:57:52;;;;;;;8.77;6.17;;;27.10;99.90;;;;;;5096165;28;20259;-66
2021/06/27 08:00:18;;;;;;;7.07;6.00;;;27.10;99.90;;;;;;5096101;28;20191;-68
2021/06/27 08:02:44;;;;;;;6.27;5.67;;;27.00;99.90;;;;;;5111639;28;20431;-67
2021/06/27 08:05:10;;;;;;;8.47;6.10;;;27.10;99.90;;;;;;5095559;28;20436;-65
2021/06/27 08:07:36;;;;;;;6.37;5.77;;;27.10;99.90;;;;;;5095836;28;20226;-65
2021/06/27 08:10:03;;;;;;;8.07;6.30;;;27.30;99.90;;;;;;5095618;28;20393;-65
2021/06/27 08:12:28;;;;;;;5.80;5.20;;;27.40;99.90;;;;;;5094101;28;20255;-66
2021/06/27 08:14:54;;;;;;;5.87;5.37;;;27.80;99.90;;;;;;5094297;28;20844;-65
2021/06/27 08:17:19;;;;;;;6.00;5.50;;;28.40;99.90;;;;;;5095695;28;20622;-66
2021/06/27 08:19:46;;;;;;;5.97;5.47;;;28.20;99.90;;;;;;5094176;28;20225;-67
2021/06/27 08:22:12;;;;;;;6.53;6.00;;;27.60;99.90;;;;;;5095507;28;20610;-66
2021/06/27 08:24:39;;;;;;;8.93;5.87;;;27.20;99.90;;;;;;5095388;28;20457;-66
2021/06/27 08:27:06;;;;;;;6.27;5.77;;;27.50;99.90;;;;;;5095281;28;20185;-66
2021/06/27 08:29:32;;;;;;;6.40;5.73;;;27.80;99.90;;;;;;5095433;28;20810;-65
2021/06/27 08:31:57;;;;;;;6.20;5.70;;;28.20;99.90;;;;;;5093782;28;20577;-68
2021/06/27 08:34:23;;;;;;;7.80;5.70;;;28.50;99.90;;;;;;5095300;28;20539;-65
2021/06/27 08:36:48;;;;;;;6.70;6.10;;;28.70;99.90;;;;;;5095012;28;20246;-65
2021/06/27 08:39:14;;;;;;;6.03;5.43;;;28.60;99.90;;;;;;5095090;28;20176;-68
2021/06/27 08:41:40;;;;;;;5.37;4.97;;;28.70;99.90;;;;;;5093178;28;20287;-66
2021/06/27 08:44:06;;;;;;;5.50;5.10;;;29.20;99.90;;;;;;5095492;28;20707;-65
2021/06/27 08:46:36;;;;;;;5.27;4.87;;;29.20;99.90;;;;;;5094812;28;20483;-65
2021/06/27 08:49:02;;;;;;;5.10;4.70;;;29.30;99.90;;;;;;5095384;28;20256;-65
2021/06/27 08:51:34;;;;;;;4.40;4.07;;;29.10;99.90;;;;;;5092428;28;21151;-67
2021/06/27 08:54:00;;;;;;;4.30;4.00;;;29.30;99.90;;;;;;5093609;28;20416;-66
2021/06/27 08:56:26;;;;;;;4.80;4.40;;;29.30;99.90;;;;;;5094861;28;20429;-67
2021/06/27 08:58:51;;;;;;;4.40;4.03;;;29.90;99.90;;;;;;5095184;28;20435;-67
2021/06/27 09:01:19;;;;;;;4.77;4.37;;;29.90;99.90;;;;;;5094664;28;20225;-65
2021/06/27 09:03:46;;;;;;;5.33;4.57;;;29.00;99.90;;;;;;5095070;28;20176;-68
2021/06/27 09:06:25;;;;;;;5.57;5.07;;;29.30;99.90;;;;;;5093266;28;20943;-65
2021/06/27 09:09:18;;;;;;;4.40;4.10;;;29.80;99.90;;;;;;5095032;28;20742;-66
2021/06/27 09:12:05;;;;;;;5.33;4.83;;;29.90;99.90;;;;;;5094543;28;20809;-65
2021/06/27 09:14:41;;;;;;;5.83;5.33;;;30.20;99.90;;;;;;5094512;28;20414;-68
2021/06/27 09:17:33;;;;;;;4.67;4.30;;;30.50;99.90;;;;;;5094282;28;20440;-66
2021/06/27 09:20:08;;;;;;;4.47;3.63;;;29.70;99.90;;;;;;5092282;28;20478;-68
2021/06/27 09:22:42;;;;;;;3.90;3.60;;;29.70;99.80;;;;;;5094585;28;20413;-65
2021/06/27 09:25:22;;;;;;;3.90;3.70;;;29.70;99.30;;;;;;5093983;28;20465;-68
2021/06/27 09:28:04;;;;;;;4.60;3.77;;;30.50;99.50;;;;;;5094363;28;20987;-66
2021/06/27 09:30:36;;;;;;;5.63;4.17;;;30.20;98.70;;;;;;5092898;28;20523;-67
2021/06/27 09:33:11;;;;;;;4.77;4.37;;;29.20;98.40;;;;;;5094462;28;20465;-66
2021/06/27 09:35:51;;;;;;;5.00;4.60;;;29.00;99.20;;;;;;5092811;28;20442;-67
2021/06/27 09:38:16;;;;;;;5.20;4.27;;;29.10;98.80;;;;;;5094465;28;20428;-67
2021/06/27 09:40:42;;;;;;;4.87;4.10;;;29.50;98.70;;;;;;5094045;28;20421;-67
2021/06/27 09:43:08;;;;;;;3.90;3.47;;;30.20;98.90;;;;;;5094268;28;20647;-66
2021/06/27 09:45:48;;;;;;;3.80;2.93;;;30.10;99.00;;;;;;5093987;28;20228;-66
2021/06/27 09:48:14;;;;;;;4.97;4.50;;;30.10;97.90;;;;;;5094382;28;20418;-66
2021/06/27 09:50:40;;;;;;;4.23;3.83;;;30.30;98.20;;;;;;5093788;28;20428;-67
2021/06/27 09:53:05;;;;;;;5.20;4.70;;;30.70;97.50;;;;;;5091755;28;20456;-65
2021/06/27 09:55:31;;;;;;;4.27;3.43;;;30.90;96.70;;;;;;5093768;28;20202;-69
2021/06/27 09:58:15;;;;;;;4.00;3.70;;;31.00;95.80;;;;;;5092599;28;20537;-65
2021/06/27 10:00:41;;;;;;;4.70;4.30;;;30.30;96.00;;;;;;5093853;28;20207;-66
2021/06/27 10:03:10;;;;;;;4.47;4.07;;;30.30;95.90;;;;;;5094030;28;20419;-67
2021/06/27 10:05:36;;;;;;;4.30;3.90;;;30.10;96.10;;;;;;5093701;28;20194;-66
2021/06/27 10:08:02;;;;;;;4.53;3.90;;;30.30;96.60;;;;;;5092532;28;20504;-67
2021/06/27 10:10:28;;;;;;;4.03;3.73;;;30.80;96.10;;;;;;5093667;28;21035;-68
2021/06/27 10:12:53;;;;;;;5.03;3.40;;;30.70;94.30;;;;;;5092404;28;20217;-66
2021/06/27 10:15:19;;;;;;;4.60;4.20;;;30.90;94.70;;;;;;5093716;28;20190;-65
2021/06/27 10:17:46;;;;;;;3.60;3.30;;;31.30;95.00;;;;;;5093913;28;20174;-66
2021/06/27 10:20:14;;;;;;;3.73;3.43;;;31.50;94.70;;;;;;5093891;28;20278;-66
2021/06/27 10:22:40;;;;;;;4.47;4.17;;;31.60;94.00;;;;;;5093802;28;20454;-67
2021/06/27 10:25:10;;;;;;;4.63;4.23;;;31.80;93.60;;;;;;5092095;28;20478;-69
2021/06/27 10:27:36;;;;;;;4.70;4.30;;;30.90;96.30;;;;;;5093674;28;20430;-68
2021/06/27 10:30:05;;;;;;;4.93;4.43;;;30.90;96.10;;;;;;5093447;28;20412;-67
2021/06/27 10:32:31;;;;;;;3.87;3.57;;;31.40;94.30;;;;;;5092149;28;20543;-68
2021/06/27 10:34:58;;;;;;;4.33;3.90;;;31.50;95.40;;;;;;5093389;28;20431;-67
2021/06/27 10:37:35;;;;;;;4.00;3.70;;;31.20;94.60;;;;;;5093592;28;20777;-66
2021/06/27 10:40:08;;;;;;;3.50;3.23;;;31.30;93.70;;;;;;5093465;28;20415;-66
2021/06/27 10:42:49;;;;;;;4.70;4.17;;;31.60;92.50;;;;;;5092479;28;20950;-66
2021/06/27 10:45:22;;;;;;;4.83;4.23;;;31.90;92.20;;;;;;5093395;28;20431;-67
2021/06/27 10:47:48;;;;;;;4.10;3.73;;;31.70;92.60;;;;;;5093461;28;20481;-67
2021/06/27 10:50:16;;;;;;;3.37;3.17;;;31.40;92.20;;;;;;5093518;28;20971;-66
2021/06/27 10:52:50;;;;;;;4.13;3.73;;;30.90;92.60;;;;;;5093406;28;20473;-66
2021/06/27 10:55:26;;;;;;;4.63;4.33;;;31.60;91.40;;;;;;5093314;28;20494;-67
2021/06/27 10:58:07;;;;;;;4.33;4.03;;;31.90;91.40;;;;;;5092100;28;20441;-67
2021/06/27 11:00:57;;;;;;;4.07;3.67;;;31.10;92.00;;;;;;5093328;28;20428;-67
2021/06/27 11:03:27;;;;;;;4.13;3.80;;;31.00;91.90;;;;;;5094576;28;20910;-67
2021/06/27 11:05:57;;;;;;;4.07;3.77;;;31.20;92.40;;;;;;5096824;28;20794;-67
2021/06/27 11:08:33;;;;;;;3.93;3.60;;;31.40;92.00;;;;;;5097363;28;20504;-69
2021/06/27 11:11:21;;;;;;;4.60;4.30;;;30.90;92.20;;;;;;5096750;28;20449;-66
2021/06/27 11:14:11;;;;;;;4.53;4.13;;;31.10;91.20;;;;;;5097374;28;20406;-68
2021/06/27 11:16:59;;;;;;;3.70;3.50;;;30.60;91.70;;;;;;5096802;28;20531;-67
2021/06/27 11:19:29;;;;;;;4.00;3.70;;;31.30;92.10;;;;;;5096836;28;20406;-66
2021/06/27 11:22:13;;;;;;;4.07;3.77;;;31.60;91.50;;;;;;5096660;28;20882;-69
2021/06/27 11:24:39;;;;;;;4.10;3.80;;;31.50;91.60;;;;;;5094932;28;20468;-67
2021/06/27 11:27:05;;;;;;;3.70;3.50;;;31.80;92.30;;;;;;5096548;28;20435;-66
2021/06/27 11:29:30;;;;;;;8.73;5.00;;;32.30;92.50;;;;;;5096683;28;20185;-68
2021/06/27 11:32:05;;;;;;;4.60;4.27;;;31.20;90.90;;;;;;5096300;28;20481;-65
2021/06/27 11:34:32;;;;;;;4.00;3.70;;;30.40;92.00;;;;;;5095164;28;20186;-67
2021/06/27 11:37:15;;;;;;;4.43;4.03;;;30.40;92.00;;;;;;5096317;28;20426;-67
2021/06/27 11:39:54;;;;;;;4.67;4.10;;;30.80;92.40;;;;;;5096414;28;20419;-67
2021/06/27 11:42:26;;;;;;;5.07;4.57;;;31.30;92.80;;;;;;5096470;28;20507;-66
2021/06/27 11:45:04;;;;;;;3.70;3.37;;;31.70;92.20;;;;;;5095583;28;20862;-67
2021/06/27 11:47:30;;;;;;;4.50;4.17;;;32.00;93.10;;;;;;5096316;28;20490;-68
2021/06/27 11:49:56;;;;;;;6.67;3.93;;;32.20;92.60;;;;;;5094823;28;20944;-66
2021/06/27 11:52:22;;;;;;;4.20;3.87;;;32.30;92.70;;;;;;5096073;28;20478;-67
2021/06/27 11:54:49;;;;;;;4.17;3.83;;;31.70;92.40;;;;;;5094616;28;20461;-67
2021/06/27 11:57:14;;;;;;;4.40;4.10;;;31.80;91.80;;;;;;5095933;28;20600;-65
2021/06/27 11:59:53;;;;;;;4.20;3.90;;;32.00;91.60;;;;;;5095980;28;20458;-68
2021/06/27 12:02:22;;;;;;;4.77;4.43;;;32.40;92.10;;;;;;5096032;28;20176;-66
2021/06/27 12:04:59;;;;;;;4.40;4.00;;;32.20;91.20;;;;;;5094499;28;20507;-66
2021/06/27 12:07:29;;;;;;;5.37;3.30;;;32.60;91.00;;;;;;5095950;28;20415;-67
2021/06/27 12:09:55;;;;;;;4.00;3.70;;;32.10;90.50;;;;;;5094372;28;20480;-67
2021/06/27 12:12:36;;;;;;;8.13;4.20;;;32.00;91.00;;;;;;5095645;28;20550;-68
2021/06/27 12:15:03;;;;;;;4.03;3.73;;;32.00;91.00;;;;;;5093367;28;20503;-67
2021/06/27 12:17:29;;;;;;;3.73;3.43;;;32.00;91.00;;;;;;5095563;28;20815;-68
2021/06/27 12:19:54;;;;;;;3.87;3.57;;;32.30;89.60;;;;;;5095387;28;20437;-66
2021/06/27 12:22:20;;;;;;;4.00;3.70;;;31.80;89.60;;;;;;5095530;28;20183;-66
2021/06/27 12:24:46;;;;;;;4.37;4.00;;;31.10;90.40;;;;;;5095175;28;20266;-67
2021/06/27 12:27:13;;;;;;;3.90;3.60;;;30.80;90.00;;;;;;5095472;28;20511;-68
2021/06/27 12:29:55;;;;;;;4.00;3.70;;;30.70;90.30;;;;;;5095284;28;20557;-67
2021/06/27 12:32:20;;;;;;;3.63;3.43;;;31.50;90.20;;;;;;5095249;28;20823;-68
2021/06/27 12:34:47;;;;;;;3.73;3.43;;;31.60;90.40;;;;;;5095281;28;20411;-67
2021/06/27 12:37:13;;;;;;;4.17;3.87;;;31.90;89.90;;;;;;5094888;28;20592;-66
2021/06/27 12:39:40;;;;;;;4.60;3.90;;;32.00;88.80;;;;;;5095147;28;20437;-67
2021/06/27 12:42:10;;;;;;;3.57;3.27;;;32.10;90.50;;;;;;5094956;28;20769;-66
2021/06/27 12:44:36;;;;;;;4.07;3.77;;;32.30;90.30;;;;;;5095088;28;20411;-66
2021/06/27 12:47:03;;;;;;;4.10;3.80;;;32.40;90.30;;;;;;5094816;28;20932;-67
2021/06/27 12:49:32;;;;;;;4.63;3.90;;;32.40;90.30;;;;;;5094997;28;20400;-66